Terminal Aerodrome Forecast
Issued by NWS

Home | Current Version | Previous Version | Graphics & Text | Print | Product List | Glossary On
Versions: 1 2 3 4 5 6 7 8 9 10 11 12 13 14 15 16 17 18 19
000
FTUS43 KBIS 191006 AAA
TAFJMS
TAF AMD
KJMS 191006Z 1910/2006 12010KT P6SM BKN120
     FM192100 13009KT P6SM SCT300
     FM200200 14007KT P6SM BKN250=

USA.gov is the U.S. government's official web portal to all federal, state and local government web resources and services.